createdAt,value
2023-03-24T00:01:26.498Z,11.80
2023-03-24T00:03:52.027Z,11.90
2023-03-24T00:06:18.797Z,12.00
2023-03-24T00:08:43.971Z,12.00
2023-03-24T00:11:11.656Z,12.00
2023-03-24T00:13:39.097Z,12.00
2023-03-24T00:16:02.551Z,12.00
2023-03-24T00:18:26.916Z,12.00
2023-03-24T00:20:51.626Z,12.00
2023-03-24T00:23:15.530Z,12.00
2023-03-24T00:25:40.103Z,12.00
2023-03-24T00:28:06.104Z,12.00
2023-03-24T00:30:31.571Z,12.00
2023-03-24T00:32:55.312Z,12.10
2023-03-24T00:35:19.051Z,12.00
2023-03-24T00:37:44.546Z,12.00
2023-03-24T00:40:12.481Z,12.10
2023-03-24T00:42:36.991Z,12.00
2023-03-24T00:45:00.429Z,12.00
2023-03-24T00:47:26.211Z,12.00
2023-03-24T00:49:53.237Z,12.10
2023-03-24T00:52:20.531Z,12.00
2023-03-24T00:54:45.911Z,12.10
2023-03-24T00:57:12.956Z,12.10
2023-03-24T00:59:42.304Z,12.10
2023-03-24T01:02:05.958Z,12.20
2023-03-24T01:04:30.857Z,12.10
2023-03-24T01:06:58.232Z,12.10
2023-03-24T01:09:22.760Z,12.10
2023-03-24T01:11:46.441Z,12.10
2023-03-24T01:14:11.354Z,12.20
2023-03-24T01:16:34.761Z,12.10
2023-03-24T01:18:59.434Z,12.20
2023-03-24T01:21:25.368Z,12.10
2023-03-24T01:23:48.898Z,12.20
2023-03-24T01:26:12.786Z,12.10
2023-03-24T01:28:40.831Z,12.20
2023-03-24T01:31:04.399Z,12.20
2023-03-24T01:33:27.932Z,12.20
2023-03-24T01:35:51.552Z,12.20
2023-03-24T01:38:17.548Z,12.20
2023-03-24T01:40:44.582Z,12.20
2023-03-24T01:43:11.916Z,12.30
2023-03-24T01:45:59.664Z,12.20
2023-03-24T01:48:28.102Z,12.30
2023-03-24T01:50:55.953Z,12.40
2023-03-24T01:53:21.979Z,12.30
2023-03-24T01:55:48.997Z,12.30
2023-03-24T01:58:16.575Z,12.30
2023-03-24T02:01:01.868Z,12.40
2023-03-24T02:03:54.038Z,12.40
2023-03-24T02:06:20.160Z,12.40
2023-03-24T02:08:52.507Z,12.40
2023-03-24T02:11:17.219Z,12.30
2023-03-24T02:13:47.680Z,12.50
2023-03-24T02:16:27.137Z,12.30
2023-03-24T02:19:06.501Z,12.30
2023-03-24T02:22:34.585Z,12.30
2023-03-24T02:25:38.171Z,12.20
2023-03-24T02:28:17.729Z,12.10
2023-03-24T02:31:34.283Z,12.10
2023-03-24T02:34:44.511Z,12.20
2023-03-24T02:38:07.485Z,12.20
2023-03-24T02:40:46.434Z,12.30
2023-03-24T02:43:28.782Z,12.40
2023-03-24T02:46:05.335Z,12.50
2023-03-24T02:48:36.396Z,12.60
2023-03-24T02:51:08.974Z,12.50
2023-03-24T02:53:42.570Z,12.70
2023-03-24T02:56:25.719Z,12.80
2023-03-24T02:58:59.803Z,13.00
2023-03-24T03:01:32.422Z,13.00
2023-03-24T03:04:13.912Z,12.90
2023-03-24T03:06:40.746Z,13.00
2023-03-24T03:09:09.614Z,13.00
2023-03-24T03:11:34.638Z,13.20
2023-03-24T03:14:02.622Z,13.30
2023-03-24T03:16:38.275Z,13.40
2023-03-24T03:19:09.896Z,13.50
2023-03-24T03:21:41.491Z,13.60
2023-03-24T03:24:09.369Z,13.60
2023-03-24T03:26:35.447Z,14.00
2023-03-24T03:29:02.875Z,13.90
2023-03-24T03:31:32.577Z,13.90
2023-03-24T03:34:07.143Z,13.90
2023-03-24T03:36:34.005Z,13.90
2023-03-24T03:39:01.882Z,13.90
2023-03-24T03:41:26.189Z,13.90
2023-03-24T03:43:51.601Z,13.90
2023-03-24T03:46:16.913Z,13.80
2023-03-24T03:48:41.324Z,13.60
2023-03-24T03:51:13.903Z,13.50
2023-03-24T03:53:49.660Z,13.40
2023-03-24T03:56:13.605Z,13.30
2023-03-24T03:58:49.135Z,13.50
2023-03-24T04:01:16.797Z,13.60
2023-03-24T04:04:26.262Z,13.50
2023-03-24T04:07:28.587Z,13.50
2023-03-24T04:10:19.953Z,13.10
2023-03-24T04:13:12.165Z,13.00
2023-03-24T04:15:57.038Z,12.90
2023-03-24T04:18:58.917Z,12.80
2023-03-24T04:21:42.273Z,12.80
2023-03-24T04:24:26.905Z,12.80
2023-03-24T04:27:00.544Z,12.80
2023-03-24T04:29:36.943Z,12.70
2023-03-24T04:32:05.877Z,12.70
2023-03-24T04:34:37.504Z,12.70
2023-03-24T04:37:18.228Z,12.70
2023-03-24T04:39:58.852Z,12.60
2023-03-24T04:42:28.712Z,12.60
2023-03-24T04:44:52.415Z,12.60
2023-03-24T04:47:58.748Z,12.70
2023-03-24T04:50:56.827Z,12.70
2023-03-24T04:53:21.496Z,12.70
2023-03-24T04:56:09.320Z,12.70
2023-03-24T04:58:51.410Z,12.70
2023-03-24T05:01:17.227Z,12.60
2023-03-24T05:03:49.707Z,12.50
2023-03-24T05:06:15.050Z,12.50
2023-03-24T05:08:38.355Z,12.50
2023-03-24T05:11:01.704Z,12.30
2023-03-24T05:13:26.633Z,12.10
2023-03-24T05:15:55.443Z,12.00
2023-03-24T05:18:41.487Z,11.90
2023-03-24T05:21:05.211Z,11.80
2023-03-24T05:23:31.783Z,11.70
2023-03-24T05:25:55.377Z,11.60
2023-03-24T05:28:20.836Z,11.50
2023-03-24T05:30:44.431Z,11.50
2023-03-24T05:33:22.149Z,11.40
2023-03-24T05:35:45.837Z,11.30
2023-03-24T05:38:09.561Z,11.20
2023-03-24T05:40:37.328Z,11.20
2023-03-24T05:43:12.318Z,11.10
2023-03-24T05:45:39.845Z,11.00
2023-03-24T05:48:03.384Z,11.10
2023-03-24T05:50:45.163Z,11.00
2023-03-24T05:53:08.618Z,11.00
2023-03-24T05:55:53.589Z,11.00
2023-03-24T05:58:49.213Z,11.00
2023-03-24T06:01:13.410Z,11.10
2023-03-24T06:03:38.850Z,11.00
2023-03-24T06:06:08.144Z,11.00
2023-03-24T06:08:33.780Z,10.90
2023-03-24T06:11:02.649Z,10.90
2023-03-24T06:13:27.432Z,11.00
2023-03-24T06:15:50.743Z,10.80
2023-03-24T06:18:30.571Z,10.70
2023-03-24T06:20:57.459Z,10.70
2023-03-24T06:23:27.699Z,10.60
2023-03-24T06:26:11.483Z,10.70
2023-03-24T06:28:53.784Z,10.70
2023-03-24T06:31:20.442Z,10.60
2023-03-24T06:33:46.315Z,10.60
2023-03-24T06:36:12.314Z,10.60
2023-03-24T06:38:37.192Z,10.60
2023-03-24T06:41:02.410Z,10.80
2023-03-24T06:43:27.630Z,10.80
2023-03-24T06:45:50.854Z,10.80
2023-03-24T06:48:17.889Z,10.90
2023-03-24T06:50:41.421Z,10.90
2023-03-24T06:53:06.885Z,10.90
2023-03-24T06:55:32.423Z,10.90
2023-03-24T06:57:56.198Z,10.90
2023-03-24T07:00:26.797Z,10.90
2023-03-24T07:03:02.470Z,11.00
2023-03-24T07:05:26.080Z,11.00
2023-03-24T07:10:37.610Z,11.00
2023-03-24T07:13:02.617Z,11.10
2023-03-24T07:15:28.748Z,11.10
2023-03-24T07:17:53.223Z,11.20
2023-03-24T07:20:26.674Z,11.30
2023-03-24T07:23:09.468Z,11.30
2023-03-24T07:25:53.178Z,11.40
2023-03-24T07:28:34.900Z,11.50
2023-03-24T07:31:03.310Z,11.70
2023-03-24T07:33:27.221Z,11.60
2023-03-24T07:35:50.763Z,11.50
2023-03-24T07:38:14.063Z,11.60
2023-03-24T07:40:37.710Z,11.60
2023-03-24T07:43:02.328Z,11.70
2023-03-24T07:45:25.942Z,11.60
2023-03-24T07:47:50.830Z,11.70
2023-03-24T07:50:15.855Z,11.60
2023-03-24T07:52:40.546Z,11.70
2023-03-24T07:55:05.322Z,11.80
2023-03-24T07:57:42.392Z,11.80
2023-03-24T08:00:14.882Z,12.00
2023-03-24T08:02:52.966Z,11.80
2023-03-24T08:05:55.897Z,12.00
2023-03-24T08:08:27.268Z,11.90
2023-03-24T08:10:51.169Z,12.00
2023-03-24T08:13:14.423Z,12.00
2023-03-24T08:15:37.966Z,11.80
2023-03-24T08:18:02.972Z,11.80
2023-03-24T08:20:27.313Z,11.90
2023-03-24T08:22:54.329Z,11.90
2023-03-24T08:25:20.716Z,11.70
2023-03-24T08:27:44.803Z,11.70
2023-03-24T08:30:10.969Z,11.70
2023-03-24T08:32:34.900Z,11.80
2023-03-24T08:35:00.181Z,12.00
2023-03-24T08:37:23.441Z,12.10
2023-03-24T08:39:46.919Z,12.00
2023-03-24T08:42:10.665Z,12.20
2023-03-24T08:44:33.920Z,12.20
2023-03-24T08:46:57.568Z,12.30
2023-03-24T08:49:21.206Z,12.60
2023-03-24T08:51:46.467Z,12.70
2023-03-24T08:54:12.605Z,12.60
2023-03-24T08:56:35.921Z,12.70
2023-03-24T08:58:59.231Z,12.80
2023-03-24T09:01:23.747Z,13.00
2023-03-24T09:03:47.619Z,13.20
2023-03-24T09:06:10.969Z,12.90
2023-03-24T09:08:35.894Z,12.60
2023-03-24T09:10:59.517Z,12.60
2023-03-24T09:13:23.048Z,12.50
2023-03-24T09:15:51.864Z,12.40
2023-03-24T09:18:15.840Z,12.40
2023-03-24T09:20:39.055Z,12.30
2023-03-24T09:23:02.451Z,12.90
2023-03-24T09:25:27.197Z,12.50
2023-03-24T09:27:51.276Z,12.60
2023-03-24T09:30:17.855Z,12.90
2023-03-24T09:32:41.615Z,12.90
2023-03-24T09:35:06.102Z,13.20
2023-03-24T09:37:30.885Z,13.50
2023-03-24T09:39:55.081Z,13.30
2023-03-24T09:42:25.631Z,13.10
2023-03-24T09:44:53.759Z,13.00
2023-03-24T09:47:28.086Z,12.90
2023-03-24T09:49:53.764Z,12.80
2023-03-24T09:52:23.454Z,12.80
2023-03-24T09:54:55.020Z,13.00
2023-03-24T09:57:25.014Z,12.80
2023-03-24T09:59:48.287Z,13.00
2023-03-24T10:02:16.057Z,13.30
2023-03-24T10:04:39.465Z,13.70
2023-03-24T10:07:09.582Z,13.50
2023-03-24T10:09:36.180Z,13.50
2023-03-24T10:12:20.524Z,13.60
2023-03-24T10:15:11.837Z,13.80
2023-03-24T10:17:46.533Z,13.30
2023-03-24T10:20:25.828Z,13.30
2023-03-24T10:23:02.070Z,13.50
2023-03-24T10:25:37.364Z,13.60
2023-03-24T10:28:06.046Z,13.50
2023-03-24T10:30:34.849Z,13.00
2023-03-24T10:32:58.391Z,13.10
2023-03-24T10:35:26.323Z,13.10
2023-03-24T10:37:50.930Z,13.20
2023-03-24T10:40:19.080Z,13.10
2023-03-24T10:42:42.400Z,13.20
2023-03-24T10:45:08.013Z,13.10
2023-03-24T10:47:33.995Z,13.10
2023-03-24T10:50:11.900Z,13.10
2023-03-24T10:52:41.308Z,13.10
2023-03-24T10:55:07.459Z,13.50
2023-03-24T10:57:31.726Z,13.50
2023-03-24T10:59:59.644Z,13.20
2023-03-24T11:02:26.854Z,13.10
2023-03-24T11:04:57.868Z,13.10
2023-03-24T11:07:23.824Z,13.20
2023-03-24T11:09:50.417Z,13.40
2023-03-24T11:12:25.714Z,13.20
2023-03-24T11:14:48.998Z,13.60
2023-03-24T11:17:16.051Z,14.00
2023-03-24T11:19:39.970Z,13.50
2023-03-24T11:22:08.900Z,13.50
2023-03-24T11:24:36.688Z,13.60
2023-03-24T11:27:02.124Z,13.60
2023-03-24T11:29:28.083Z,13.40
2023-03-24T11:31:58.424Z,13.50
2023-03-24T11:34:25.254Z,13.50
2023-03-24T11:36:52.160Z,13.50
2023-03-24T11:39:21.763Z,13.60
2023-03-24T11:41:53.784Z,13.70
2023-03-24T11:44:22.640Z,14.00
2023-03-24T11:46:48.643Z,14.40
2023-03-24T11:49:18.077Z,14.50
2023-03-24T11:51:43.563Z,14.90
2023-03-24T11:54:13.243Z,15.00
2023-03-24T11:56:43.092Z,14.80
2023-03-24T11:59:15.633Z,14.70
2023-03-24T12:01:41.480Z,15.00
2023-03-24T12:04:30.872Z,14.90
2023-03-24T12:07:15.583Z,14.70
2023-03-24T12:09:47.615Z,14.60
2023-03-24T12:12:27.915Z,14.50
2023-03-24T12:15:28.854Z,14.70
2023-03-24T12:18:04.268Z,14.70
2023-03-24T12:20:32.790Z,14.40
2023-03-24T12:23:02.976Z,14.20
2023-03-24T12:26:03.804Z,14.30
2023-03-24T12:29:26.444Z,14.40
2023-03-24T12:32:07.636Z,14.70
2023-03-24T12:35:16.528Z,15.00
2023-03-24T12:37:50.872Z,14.50
2023-03-24T12:40:54.859Z,14.50
2023-03-24T12:43:30.734Z,14.40
2023-03-24T12:45:58.542Z,14.50
2023-03-24T12:48:55.899Z,14.70
2023-03-24T12:51:34.091Z,14.60
2023-03-24T12:54:12.025Z,14.50
2023-03-24T12:56:42.128Z,14.30
2023-03-24T12:59:11.682Z,14.40
2023-03-24T13:01:40.930Z,14.30
2023-03-24T13:04:11.922Z,14.20
2023-03-24T13:06:40.585Z,14.00
2023-03-24T13:09:13.279Z,14.00
2023-03-24T13:11:44.739Z,14.00
2023-03-24T13:14:16.760Z,14.00
2023-03-24T13:16:43.532Z,14.10
2023-03-24T13:19:20.266Z,14.00
2023-03-24T13:21:45.034Z,14.00
2023-03-24T13:24:13.580Z,14.00
2023-03-24T13:26:40.959Z,14.00
2023-03-24T13:29:38.470Z,14.00
2023-03-24T13:32:24.334Z,14.00
2023-03-24T13:34:56.055Z,14.00
2023-03-24T13:37:23.306Z,13.60
2023-03-24T13:39:48.246Z,13.80
2023-03-24T13:42:32.576Z,14.00
2023-03-24T13:44:55.926Z,14.50
2023-03-24T13:47:21.062Z,15.00
2023-03-24T13:49:55.057Z,15.20
2023-03-24T13:52:28.928Z,15.20
2023-03-24T13:54:57.768Z,15.00
2023-03-24T13:57:23.535Z,15.30
2023-03-24T14:00:18.576Z,15.30
2023-03-24T14:02:49.076Z,15.50
2023-03-24T14:05:13.710Z,15.40
2023-03-24T14:07:51.801Z,14.40
2023-03-24T14:10:45.654Z,13.30
2023-03-24T14:13:25.317Z,13.20
2023-03-24T14:15:52.611Z,12.50
2023-03-24T14:18:43.058Z,12.60
2023-03-24T14:21:08.734Z,12.50
2023-03-24T14:23:38.402Z,12.70
2023-03-24T14:26:01.996Z,12.50
2023-03-24T14:28:33.713Z,12.50
2023-03-24T14:31:24.436Z,12.50
2023-03-24T14:34:05.743Z,12.00
2023-03-24T14:36:32.841Z,13.10
2023-03-24T14:38:56.156Z,13.30
2023-03-24T14:41:31.239Z,12.90
2023-03-24T14:43:59.865Z,13.10
2023-03-24T14:46:40.425Z,13.50
2023-03-24T14:49:11.128Z,13.10
2023-03-24T14:51:41.966Z,13.00
2023-03-24T14:54:12.552Z,13.00
2023-03-24T14:56:41.399Z,12.90
2023-03-24T14:59:12.221Z,13.00
2023-03-24T15:01:42.238Z,13.10
2023-03-24T15:04:11.215Z,13.70
2023-03-24T15:06:35.080Z,13.50
2023-03-24T15:09:01.187Z,13.50
2023-03-24T15:11:29.638Z,13.50
2023-03-24T15:13:54.469Z,13.20
2023-03-24T15:16:25.404Z,13.30
2023-03-24T15:19:00.743Z,13.40
2023-03-24T15:21:34.526Z,13.30
2023-03-24T15:24:01.022Z,12.70
2023-03-24T15:26:26.757Z,12.70
2023-03-24T15:28:57.501Z,12.60
2023-03-24T15:31:22.603Z,12.80
2023-03-24T15:33:47.010Z,12.70
2023-03-24T15:36:18.849Z,12.50
2023-03-24T15:38:47.673Z,12.20
2023-03-24T15:41:15.516Z,11.70
2023-03-24T15:43:45.789Z,11.20
2023-03-24T15:46:27.177Z,11.10
2023-03-24T15:48:50.974Z,11.00
2023-03-24T15:51:15.196Z,10.90
2023-03-24T15:53:44.213Z,10.80
2023-03-24T15:56:20.626Z,10.80
2023-03-24T15:58:55.415Z,10.80
2023-03-24T16:01:25.858Z,10.80
2023-03-24T16:03:49.774Z,10.60
2023-03-24T16:06:16.331Z,10.70
2023-03-24T16:08:41.052Z,10.70
2023-03-24T16:11:10.819Z,10.60
2023-03-24T16:13:36.416Z,10.70
2023-03-24T16:16:03.625Z,11.00
2023-03-24T16:18:32.974Z,11.30
2023-03-24T16:20:56.325Z,11.60
2023-03-24T16:23:20.047Z,11.60
2023-03-24T16:25:43.347Z,11.70
2023-03-24T16:28:07.381Z,11.90
2023-03-24T16:30:39.216Z,12.00
2023-03-24T16:33:02.706Z,12.00
2023-03-24T16:35:26.078Z,12.20
2023-03-24T16:37:49.418Z,12.60
2023-03-24T16:40:28.284Z,11.80
2023-03-24T16:42:51.554Z,11.90
2023-03-24T16:45:14.955Z,11.80
2023-03-24T16:47:39.744Z,11.60
2023-03-24T16:50:03.036Z,11.50
2023-03-24T16:52:26.336Z,11.50
2023-03-24T16:54:50.534Z,11.50
2023-03-24T16:57:14.177Z,11.40
2023-03-24T16:59:37.557Z,11.50
2023-03-24T17:02:05.680Z,11.50
2023-03-24T17:04:33.582Z,11.60
2023-03-24T17:06:56.968Z,11.60
2023-03-24T17:09:21.670Z,11.50
2023-03-24T17:11:48.866Z,11.60
2023-03-24T17:14:13.158Z,11.70
2023-03-24T17:16:38.279Z,11.60
2023-03-24T17:19:01.999Z,11.60
2023-03-24T17:21:26.728Z,11.60
2023-03-24T17:23:54.767Z,11.50
2023-03-24T17:26:18.418Z,11.50
2023-03-24T17:28:41.700Z,11.50
2023-03-24T17:31:05.541Z,11.40
2023-03-24T17:33:28.906Z,11.30
2023-03-24T17:35:52.582Z,11.10
2023-03-24T17:38:17.657Z,11.10
2023-03-24T17:40:41.740Z,11.10
2023-03-24T17:43:05.586Z,11.00
2023-03-24T17:45:28.919Z,11.00
2023-03-24T17:47:52.273Z,11.00
2023-03-24T17:50:15.959Z,11.00
2023-03-24T17:52:40.057Z,10.80
2023-03-24T17:55:05.642Z,10.80
2023-03-24T17:57:28.973Z,11.00
2023-03-24T17:59:53.151Z,10.90
2023-03-24T18:02:17.822Z,10.80
2023-03-24T18:04:41.515Z,10.80
2023-03-24T18:07:05.037Z,10.70
2023-03-24T18:09:28.703Z,10.60
2023-03-24T18:11:53.485Z,10.50
2023-03-24T18:14:16.865Z,10.50
2023-03-24T18:16:40.333Z,10.50
2023-03-24T18:19:04.204Z,10.50
2023-03-24T18:21:27.662Z,10.50
2023-03-24T18:23:51.599Z,10.40
2023-03-24T18:26:15.723Z,10.30
2023-03-24T18:28:42.105Z,10.30
2023-03-24T18:31:10.016Z,10.30
2023-03-24T18:33:33.348Z,10.20
2023-03-24T18:35:56.998Z,10.30
2023-03-24T18:38:22.373Z,10.30
2023-03-24T18:40:47.206Z,10.50
2023-03-24T18:43:11.947Z,10.50
2023-03-24T18:45:36.959Z,10.50
2023-03-24T18:48:00.601Z,10.50
2023-03-24T18:50:23.943Z,10.60
2023-03-24T18:52:47.215Z,10.50
2023-03-24T18:55:11.669Z,10.50
2023-03-24T18:57:35.021Z,10.50
2023-03-24T18:59:58.364Z,10.50
2023-03-24T19:02:23.167Z,10.50
2023-03-24T19:04:48.158Z,10.50
2023-03-24T19:07:14.539Z,10.50
2023-03-24T19:09:38.468Z,10.50
2023-03-24T19:12:01.849Z,10.50
2023-03-24T19:14:26.490Z,10.50
2023-03-24T19:16:49.762Z,10.50
2023-03-24T19:19:14.442Z,10.50
2023-03-24T19:21:37.906Z,10.40
2023-03-24T19:24:01.203Z,10.30
2023-03-24T19:26:24.842Z,10.50
2023-03-24T19:28:48.378Z,10.50
2023-03-24T19:31:15.372Z,10.60
2023-03-24T19:33:39.262Z,10.60
2023-03-24T19:36:04.757Z,10.70
2023-03-24T19:38:29.114Z,10.70
2023-03-24T19:40:53.912Z,10.60
2023-03-24T19:43:17.302Z,10.60
2023-03-24T19:45:42.792Z,10.50
2023-03-24T19:48:06.368Z,10.50
2023-03-24T19:50:30.247Z,10.50
2023-03-24T19:52:54.955Z,10.50
2023-03-24T19:55:18.493Z,10.40
2023-03-24T19:57:42.329Z,10.40
2023-03-24T20:00:09.239Z,10.30
2023-03-24T20:02:32.555Z,10.20
2023-03-24T20:04:56.169Z,10.20
2023-03-24T20:07:19.530Z,10.40
2023-03-24T20:09:44.469Z,10.50
2023-03-24T20:12:07.951Z,10.50
2023-03-24T20:14:31.529Z,10.50
2023-03-24T20:16:55.062Z,10.50
2023-03-24T20:19:18.388Z,10.50
2023-03-24T20:21:41.758Z,10.40
2023-03-24T20:24:05.517Z,10.30
2023-03-24T20:26:30.437Z,10.40
2023-03-24T20:28:53.802Z,10.30
2023-03-24T20:31:17.798Z,10.20
2023-03-24T20:33:41.217Z,10.20
2023-03-24T20:36:06.182Z,10.20
2023-03-24T20:38:29.843Z,10.20
2023-03-24T20:41:00.668Z,10.20
2023-03-24T20:43:25.335Z,10.10
2023-03-24T20:45:48.801Z,10.00
2023-03-24T20:48:12.357Z,10.00
2023-03-24T20:50:36.689Z,10.00
2023-03-24T20:53:00.359Z,10.00
2023-03-24T20:55:24.069Z,10.00
2023-03-24T20:57:47.494Z,10.00
2023-03-24T21:00:14.791Z,9.90
2023-03-24T21:02:38.294Z,10.00
2023-03-24T21:05:01.746Z,10.00
2023-03-24T21:07:25.169Z,9.90
2023-03-24T21:09:48.546Z,9.90
2023-03-24T21:12:11.922Z,9.90
2023-03-24T21:14:35.241Z,9.90
2023-03-24T21:16:59.968Z,9.90
2023-03-24T21:19:24.263Z,9.90
2023-03-24T21:21:49.423Z,9.80
2023-03-24T21:24:14.249Z,9.80
2023-03-24T21:26:37.497Z,9.80
2023-03-24T21:29:00.730Z,9.90
2023-03-24T21:31:27.763Z,9.80
2023-03-24T21:33:53.141Z,9.90
2023-03-24T21:36:16.875Z,9.90
2023-03-24T21:38:40.674Z,9.80
2023-03-24T21:41:04.160Z,10.00
2023-03-24T21:43:29.257Z,10.00
2023-03-24T21:45:54.487Z,10.00
2023-03-24T21:48:18.311Z,10.00
2023-03-24T21:50:45.358Z,10.00
2023-03-24T21:53:15.373Z,10.00
2023-03-24T21:55:38.821Z,10.00
2023-03-24T21:58:02.086Z,10.00
2023-03-24T22:00:29.936Z,10.00
2023-03-24T22:02:58.193Z,10.00
2023-03-24T22:05:23.880Z,10.00
2023-03-24T22:07:49.341Z,10.00
2023-03-24T22:10:14.477Z,10.10
2023-03-24T22:12:37.799Z,10.20
2023-03-24T22:15:01.949Z,10.20
2023-03-24T22:17:25.366Z,10.20
2023-03-24T22:19:48.651Z,10.20
2023-03-24T22:22:11.869Z,10.20
2023-03-24T22:24:37.219Z,10.20
2023-03-24T22:27:00.899Z,10.30
2023-03-24T22:29:24.293Z,10.30
2023-03-24T22:31:47.597Z,10.10
2023-03-24T22:34:11.061Z,9.90
2023-03-24T22:36:34.306Z,9.90
2023-03-24T22:38:57.575Z,10.00
2023-03-24T22:41:22.264Z,10.00
2023-03-24T22:43:45.548Z,10.00
2023-03-24T22:46:09.504Z,10.00
2023-03-24T22:48:32.794Z,10.00
2023-03-24T22:50:56.152Z,10.00
2023-03-24T22:53:19.410Z,10.00
2023-03-24T22:55:44.816Z,10.00
2023-03-24T22:58:09.862Z,9.90
2023-03-24T23:00:33.461Z,9.90
2023-03-24T23:02:56.846Z,9.90
2023-03-24T23:05:20.360Z,9.90
2023-03-24T23:07:44.077Z,9.90
2023-03-24T23:10:08.386Z,9.90
2023-03-24T23:12:31.887Z,9.80
2023-03-24T23:14:56.892Z,9.80
2023-03-24T23:17:23.946Z,9.80
2023-03-24T23:19:47.440Z,9.80
2023-03-24T23:22:11.206Z,9.70
2023-03-24T23:24:39.255Z,9.80
2023-03-24T23:27:02.640Z,9.80
2023-03-24T23:29:26.075Z,9.70
2023-03-24T23:31:50.858Z,9.80
2023-03-24T23:34:14.076Z,9.80
2023-03-24T23:36:39.796Z,9.80
2023-03-24T23:39:03.985Z,9.60
2023-03-24T23:41:27.355Z,9.60
2023-03-24T23:43:51.761Z,9.50
2023-03-24T23:46:15.008Z,9.50
2023-03-24T23:48:39.720Z,9.50
2023-03-24T23:51:07.329Z,9.50
2023-03-24T23:53:31.766Z,9.40
2023-03-24T23:55:57.235Z,9.40
2023-03-24T23:58:20.429Z,9.40
